sensor_id;sensor_type;location;lat;lon;timestamp;P1;durP1;ratioP1;P2;durP2;ratioP2
64854;SDS011;51321;50.428;8.378;2022-11-20T00:01:34;13.20;;;9.13;;
64854;SDS011;51321;50.428;8.378;2022-11-20T00:03:57;14.18;;;10.00;;
64854;SDS011;51321;50.428;8.378;2022-11-20T00:06:22;14.90;;;10.55;;
64854;SDS011;51321;50.428;8.378;2022-11-20T00:08:45;15.70;;;9.95;;
64854;SDS011;51321;50.428;8.378;2022-11-20T00:11:10;13.18;;;9.48;;
64854;SDS011;51321;50.428;8.378;2022-11-20T00:13:38;12.85;;;9.20;;
64854;SDS011;51321;50.428;8.378;2022-11-20T00:16:02;13.18;;;9.27;;
64854;SDS011;51321;50.428;8.378;2022-11-20T00:18:28;13.40;;;9.57;;
64854;SDS011;51321;50.428;8.378;2022-11-20T00:20:51;13.32;;;10.15;;
64854;SDS011;51321;50.428;8.378;2022-11-20T00:25:39;13.23;;;10.05;;
64854;SDS011;51321;50.428;8.378;2022-11-20T00:28:01;14.60;;;10.70;;
64854;SDS011;51321;50.428;8.378;2022-11-20T00:30:27;14.63;;;9.75;;
64854;SDS011;51321;50.428;8.378;2022-11-20T00:32:49;13.07;;;10.18;;
64854;SDS011;51321;50.428;8.378;2022-11-20T00:35:12;12.27;;;8.77;;
64854;SDS011;51321;50.428;8.378;2022-11-20T00:37:34;12.27;;;9.43;;
64854;SDS011;51321;50.428;8.378;2022-11-20T00:39:58;17.45;;;10.65;;
64854;SDS011;51321;50.428;8.378;2022-11-20T00:42:20;14.30;;;9.80;;
64854;SDS011;51321;50.428;8.378;2022-11-20T00:44:42;13.85;;;10.02;;
64854;SDS011;51321;50.428;8.378;2022-11-20T00:47:06;14.93;;;10.25;;
64854;SDS011;51321;50.428;8.378;2022-11-20T00:49:28;19.55;;;11.20;;
64854;SDS011;51321;50.428;8.378;2022-11-20T00:51:51;13.30;;;8.98;;
64854;SDS011;51321;50.428;8.378;2022-11-20T00:54:15;18.90;;;11.80;;
64854;SDS011;51321;50.428;8.378;2022-11-20T00:56:41;18.45;;;11.60;;
64854;SDS011;51321;50.428;8.378;2022-11-20T00:59:04;16.02;;;11.00;;
64854;SDS011;51321;50.428;8.378;2022-11-20T01:01:27;16.45;;;10.25;;
64854;SDS011;51321;50.428;8.378;2022-11-20T01:03:52;14.25;;;10.60;;
64854;SDS011;51321;50.428;8.378;2022-11-20T01:06:22;13.35;;;9.60;;
64854;SDS011;51321;50.428;8.378;2022-11-20T01:08:48;13.27;;;9.82;;
64854;SDS011;51321;50.428;8.378;2022-11-20T01:11:12;14.48;;;9.07;;
64854;SDS011;51321;50.428;8.378;2022-11-20T01:13:36;12.63;;;9.10;;
64854;SDS011;51321;50.428;8.378;2022-11-20T01:16:02;13.60;;;9.30;;
64854;SDS011;51321;50.428;8.378;2022-11-20T01:18:25;12.95;;;9.40;;
64854;SDS011;51321;50.428;8.378;2022-11-20T01:20:51;13.50;;;9.77;;
64854;SDS011;51321;50.428;8.378;2022-11-20T01:23:15;12.80;;;9.20;;
64854;SDS011;51321;50.428;8.378;2022-11-20T01:25:40;13.82;;;9.15;;
64854;SDS011;51321;50.428;8.378;2022-11-20T01:28:04;19.25;;;11.63;;
64854;SDS011;51321;50.428;8.378;2022-11-20T01:30:27;13.13;;;8.25;;
64854;SDS011;51321;50.428;8.378;2022-11-20T01:32:50;12.02;;;9.05;;
64854;SDS011;51321;50.428;8.378;2022-11-20T01:35:15;10.68;;;8.50;;
64854;SDS011;51321;50.428;8.378;2022-11-20T01:37:43;12.95;;;8.90;;
64854;SDS011;51321;50.428;8.378;2022-11-20T01:40:08;14.40;;;9.27;;
64854;SDS011;51321;50.428;8.378;2022-11-20T01:42:32;16.80;;;9.82;;
64854;SDS011;51321;50.428;8.378;2022-11-20T01:48:23;11.02;;;7.90;;
64854;SDS011;51321;50.428;8.378;2022-11-20T01:50:50;12.77;;;9.02;;
64854;SDS011;51321;50.428;8.378;2022-11-20T01:53:16;12.95;;;9.10;;
64854;SDS011;51321;50.428;8.378;2022-11-20T01:55:43;13.23;;;8.93;;
64854;SDS011;51321;50.428;8.378;2022-11-20T01:58:11;14.43;;;9.18;;
64854;SDS011;51321;50.428;8.378;2022-11-20T02:00:35;11.35;;;8.25;;
64854;SDS011;51321;50.428;8.378;2022-11-20T02:03:01;12.48;;;8.50;;
64854;SDS011;51321;50.428;8.378;2022-11-20T02:08:17;12.95;;;8.73;;
64854;SDS011;51321;50.428;8.378;2022-11-20T02:10:42;13.50;;;9.23;;
64854;SDS011;51321;50.428;8.378;2022-11-20T02:13:16;12.25;;;8.73;;
64854;SDS011;51321;50.428;8.378;2022-11-20T02:16:18;13.30;;;9.18;;
64854;SDS011;51321;50.428;8.378;2022-11-20T02:19:04;12.75;;;10.05;;
64854;SDS011;51321;50.428;8.378;2022-11-20T02:21:40;11.15;;;9.07;;
64854;SDS011;51321;50.428;8.378;2022-11-20T02:24:15;12.20;;;9.10;;
64854;SDS011;51321;50.428;8.378;2022-11-20T02:26:44;14.43;;;8.63;;
64854;SDS011;51321;50.428;8.378;2022-11-20T02:29:11;13.02;;;8.38;;
64854;SDS011;51321;50.428;8.378;2022-11-20T02:31:36;13.20;;;9.48;;
64854;SDS011;51321;50.428;8.378;2022-11-20T02:34:01;12.45;;;9.07;;
64854;SDS011;51321;50.428;8.378;2022-11-20T02:36:26;11.63;;;8.70;;
64854;SDS011;51321;50.428;8.378;2022-11-20T02:38:50;14.13;;;9.68;;
64854;SDS011;51321;50.428;8.378;2022-11-20T02:41:19;15.35;;;9.73;;
64854;SDS011;51321;50.428;8.378;2022-11-20T02:43:42;16.80;;;9.60;;
64854;SDS011;51321;50.428;8.378;2022-11-20T02:46:08;12.32;;;8.65;;
64854;SDS011;51321;50.428;8.378;2022-11-20T02:48:33;12.95;;;9.00;;
64854;SDS011;51321;50.428;8.378;2022-11-20T02:50:55;13.10;;;9.52;;
64854;SDS011;51321;50.428;8.378;2022-11-20T02:53:21;12.38;;;8.98;;
64854;SDS011;51321;50.428;8.378;2022-11-20T02:55:45;14.05;;;9.35;;
64854;SDS011;51321;50.428;8.378;2022-11-20T02:58:11;13.68;;;9.68;;
64854;SDS011;51321;50.428;8.378;2022-11-20T03:00:34;12.65;;;9.10;;
64854;SDS011;51321;50.428;8.378;2022-11-20T03:02:59;12.65;;;9.07;;
64854;SDS011;51321;50.428;8.378;2022-11-20T03:05:25;13.13;;;9.18;;
64854;SDS011;51321;50.428;8.378;2022-11-20T03:07:48;14.77;;;10.10;;
64854;SDS011;51321;50.428;8.378;2022-11-20T03:10:11;11.98;;;9.30;;
64854;SDS011;51321;50.428;8.378;2022-11-20T03:12:33;13.30;;;9.85;;
64854;SDS011;51321;50.428;8.378;2022-11-20T03:17:20;13.10;;;8.90;;
64854;SDS011;51321;50.428;8.378;2022-11-20T03:19:43;13.52;;;9.18;;
64854;SDS011;51321;50.428;8.378;2022-11-20T03:22:06;13.68;;;9.75;;
64854;SDS011;51321;50.428;8.378;2022-11-20T03:24:29;12.82;;;9.30;;
64854;SDS011;51321;50.428;8.378;2022-11-20T03:26:52;12.85;;;9.30;;
64854;SDS011;51321;50.428;8.378;2022-11-20T03:29:15;13.13;;;9.13;;
64854;SDS011;51321;50.428;8.378;2022-11-20T03:31:40;13.63;;;9.57;;
64854;SDS011;51321;50.428;8.378;2022-11-20T03:34:03;13.18;;;9.60;;
64854;SDS011;51321;50.428;8.378;2022-11-20T03:36:26;12.48;;;9.52;;
64854;SDS011;51321;50.428;8.378;2022-11-20T03:38:50;13.57;;;9.68;;
64854;SDS011;51321;50.428;8.378;2022-11-20T03:43:37;12.90;;;9.40;;
64854;SDS011;51321;50.428;8.378;2022-11-20T03:46:01;15.38;;;10.70;;
64854;SDS011;51321;50.428;8.378;2022-11-20T03:48:26;16.83;;;9.73;;
64854;SDS011;51321;50.428;8.378;2022-11-20T03:51:05;14.02;;;10.32;;
64854;SDS011;51321;50.428;8.378;2022-11-20T03:53:29;15.57;;;10.13;;
64854;SDS011;51321;50.428;8.378;2022-11-20T03:55:52;14.90;;;10.70;;
64854;SDS011;51321;50.428;8.378;2022-11-20T03:58:15;12.88;;;9.63;;
64854;SDS011;51321;50.428;8.378;2022-11-20T04:00:40;14.48;;;10.15;;
64854;SDS011;51321;50.428;8.378;2022-11-20T04:03:03;14.98;;;10.35;;
64854;SDS011;51321;50.428;8.378;2022-11-20T04:05:28;14.95;;;10.65;;
64854;SDS011;51321;50.428;8.378;2022-11-20T04:07:51;15.00;;;10.85;;
64854;SDS011;51321;50.428;8.378;2022-11-20T04:10:14;14.00;;;9.63;;
64854;SDS011;51321;50.428;8.378;2022-11-20T04:12:36;15.93;;;10.98;;
64854;SDS011;51321;50.428;8.378;2022-11-20T04:14:58;16.52;;;11.18;;
64854;SDS011;51321;50.428;8.378;2022-11-20T04:17:20;14.93;;;10.75;;
64854;SDS011;51321;50.428;8.378;2022-11-20T04:22:06;14.30;;;10.05;;
64854;SDS011;51321;50.428;8.378;2022-11-20T04:24:31;17.00;;;11.48;;
64854;SDS011;51321;50.428;8.378;2022-11-20T04:26:54;13.93;;;9.88;;
64854;SDS011;51321;50.428;8.378;2022-11-20T04:29:16;16.42;;;11.88;;
64854;SDS011;51321;50.428;8.378;2022-11-20T04:31:38;15.07;;;10.73;;
64854;SDS011;51321;50.428;8.378;2022-11-20T04:34:00;16.30;;;11.60;;
64854;SDS011;51321;50.428;8.378;2022-11-20T04:36:25;15.57;;;10.57;;
64854;SDS011;51321;50.428;8.378;2022-11-20T04:38:51;15.20;;;10.73;;
64854;SDS011;51321;50.428;8.378;2022-11-20T04:41:15;15.15;;;11.35;;
64854;SDS011;51321;50.428;8.378;2022-11-20T04:43:38;13.98;;;10.15;;
64854;SDS011;51321;50.428;8.378;2022-11-20T04:46:04;16.38;;;11.90;;
64854;SDS011;51321;50.428;8.378;2022-11-20T04:48:28;18.98;;;11.73;;
64854;SDS011;51321;50.428;8.378;2022-11-20T04:50:53;17.33;;;11.77;;
64854;SDS011;51321;50.428;8.378;2022-11-20T04:53:16;17.20;;;12.10;;
64854;SDS011;51321;50.428;8.378;2022-11-20T04:55:41;18.23;;;12.10;;
64854;SDS011;51321;50.428;8.378;2022-11-20T04:58:03;17.02;;;11.02;;
64854;SDS011;51321;50.428;8.378;2022-11-20T05:00:27;15.90;;;11.85;;
64854;SDS011;51321;50.428;8.378;2022-11-20T05:02:49;18.38;;;12.15;;
64854;SDS011;51321;50.428;8.378;2022-11-20T05:05:14;17.52;;;11.82;;
64854;SDS011;51321;50.428;8.378;2022-11-20T05:07:37;16.65;;;11.48;;
64854;SDS011;51321;50.428;8.378;2022-11-20T05:10:00;15.88;;;11.45;;
64854;SDS011;51321;50.428;8.378;2022-11-20T05:12:24;19.90;;;12.23;;
64854;SDS011;51321;50.428;8.378;2022-11-20T05:14:46;17.02;;;11.38;;
64854;SDS011;51321;50.428;8.378;2022-11-20T05:17:09;17.92;;;11.68;;
64854;SDS011;51321;50.428;8.378;2022-11-20T05:19:32;18.13;;;12.07;;
64854;SDS011;51321;50.428;8.378;2022-11-20T05:24:18;20.08;;;13.23;;
64854;SDS011;51321;50.428;8.378;2022-11-20T05:26:42;18.80;;;12.07;;
64854;SDS011;51321;50.428;8.378;2022-11-20T05:29:05;23.15;;;14.68;;
64854;SDS011;51321;50.428;8.378;2022-11-20T05:31:28;23.83;;;15.85;;
64854;SDS011;51321;50.428;8.378;2022-11-20T05:33:50;21.75;;;13.20;;
64854;SDS011;51321;50.428;8.378;2022-11-20T05:36:14;21.02;;;14.18;;
64854;SDS011;51321;50.428;8.378;2022-11-20T05:38:37;22.58;;;13.73;;
64854;SDS011;51321;50.428;8.378;2022-11-20T05:41:04;21.13;;;14.52;;
64854;SDS011;51321;50.428;8.378;2022-11-20T05:43:32;26.83;;;15.00;;
64854;SDS011;51321;50.428;8.378;2022-11-20T05:45:57;20.95;;;14.35;;
64854;SDS011;51321;50.428;8.378;2022-11-20T05:48:20;24.65;;;14.95;;
64854;SDS011;51321;50.428;8.378;2022-11-20T05:50:43;22.88;;;15.00;;
64854;SDS011;51321;50.428;8.378;2022-11-20T05:53:10;25.83;;;15.10;;
64854;SDS011;51321;50.428;8.378;2022-11-20T05:55:38;22.98;;;14.38;;
64854;SDS011;51321;50.428;8.378;2022-11-20T05:58:01;24.70;;;15.25;;
64854;SDS011;51321;50.428;8.378;2022-11-20T06:00:28;25.92;;;15.98;;
64854;SDS011;51321;50.428;8.378;2022-11-20T06:02:52;70.25;;;43.38;;
64854;SDS011;51321;50.428;8.378;2022-11-20T06:05:15;24.48;;;15.45;;
64854;SDS011;51321;50.428;8.378;2022-11-20T06:07:37;27.42;;;15.35;;
64854;SDS011;51321;50.428;8.378;2022-11-20T06:10:00;25.33;;;14.13;;
64854;SDS011;51321;50.428;8.378;2022-11-20T06:14:45;22.65;;;12.93;;
64854;SDS011;51321;50.428;8.378;2022-11-20T06:17:08;26.92;;;14.68;;
64854;SDS011;51321;50.428;8.378;2022-11-20T06:19:33;22.48;;;14.38;;
64854;SDS011;51321;50.428;8.378;2022-11-20T06:21:55;24.35;;;14.50;;
64854;SDS011;51321;50.428;8.378;2022-11-20T06:24:19;23.70;;;14.75;;
64854;SDS011;51321;50.428;8.378;2022-11-20T06:26:43;25.67;;;15.68;;
64854;SDS011;51321;50.428;8.378;2022-11-20T06:29:07;24.00;;;14.10;;
64854;SDS011;51321;50.428;8.378;2022-11-20T06:31:32;23.02;;;13.40;;
64854;SDS011;51321;50.428;8.378;2022-11-20T06:33:59;26.77;;;15.35;;
64854;SDS011;51321;50.428;8.378;2022-11-20T06:36:26;25.67;;;15.32;;
64854;SDS011;51321;50.428;8.378;2022-11-20T06:38:48;21.85;;;14.18;;
64854;SDS011;51321;50.428;8.378;2022-11-20T06:41:12;24.67;;;14.73;;
64854;SDS011;51321;50.428;8.378;2022-11-20T06:43:37;25.20;;;15.65;;
64854;SDS011;51321;50.428;8.378;2022-11-20T06:46:00;27.17;;;16.30;;
64854;SDS011;51321;50.428;8.378;2022-11-20T06:48:23;24.63;;;15.63;;
64854;SDS011;51321;50.428;8.378;2022-11-20T06:50:47;28.48;;;17.70;;
64854;SDS011;51321;50.428;8.378;2022-11-20T06:55:34;22.38;;;14.45;;
64854;SDS011;51321;50.428;8.378;2022-11-20T06:57:57;27.15;;;16.45;;
64854;SDS011;51321;50.428;8.378;2022-11-20T07:00:22;25.75;;;16.73;;
64854;SDS011;51321;50.428;8.378;2022-11-20T07:05:07;26.00;;;16.02;;
64854;SDS011;51321;50.428;8.378;2022-11-20T07:07:30;27.55;;;16.52;;
64854;SDS011;51321;50.428;8.378;2022-11-20T07:09:57;25.10;;;16.02;;
64854;SDS011;51321;50.428;8.378;2022-11-20T07:12:19;24.85;;;15.23;;
64854;SDS011;51321;50.428;8.378;2022-11-20T07:14:42;27.05;;;16.48;;
64854;SDS011;51321;50.428;8.378;2022-11-20T07:17:04;29.00;;;16.63;;
64854;SDS011;51321;50.428;8.378;2022-11-20T07:19:31;27.77;;;17.10;;
64854;SDS011;51321;50.428;8.378;2022-11-20T07:21:57;28.50;;;16.70;;
64854;SDS011;51321;50.428;8.378;2022-11-20T07:24:19;29.83;;;17.98;;
64854;SDS011;51321;50.428;8.378;2022-11-20T07:26:43;29.88;;;18.42;;
64854;SDS011;51321;50.428;8.378;2022-11-20T07:29:09;30.88;;;19.98;;
64854;SDS011;51321;50.428;8.378;2022-11-20T07:31:31;28.20;;;18.00;;
64854;SDS011;51321;50.428;8.378;2022-11-20T07:33:57;30.98;;;17.73;;
64854;SDS011;51321;50.428;8.378;2022-11-20T07:36:19;29.45;;;17.60;;
64854;SDS011;51321;50.428;8.378;2022-11-20T07:38:42;30.63;;;17.15;;
64854;SDS011;51321;50.428;8.378;2022-11-20T07:41:07;27.55;;;17.90;;
64854;SDS011;51321;50.428;8.378;2022-11-20T07:43:30;29.42;;;18.50;;
64854;SDS011;51321;50.428;8.378;2022-11-20T07:45:54;31.48;;;18.42;;
64854;SDS011;51321;50.428;8.378;2022-11-20T07:48:17;34.30;;;19.15;;
64854;SDS011;51321;50.428;8.378;2022-11-20T07:50:39;30.13;;;17.30;;
64854;SDS011;51321;50.428;8.378;2022-11-20T07:53:04;34.25;;;18.98;;
64854;SDS011;51321;50.428;8.378;2022-11-20T07:55:26;33.50;;;19.05;;
64854;SDS011;51321;50.428;8.378;2022-11-20T07:57:53;33.00;;;19.13;;
64854;SDS011;51321;50.428;8.378;2022-11-20T08:00:19;38.55;;;21.63;;
64854;SDS011;51321;50.428;8.378;2022-11-20T08:02:42;35.42;;;21.63;;
64854;SDS011;51321;50.428;8.378;2022-11-20T08:05:06;34.15;;;20.77;;
64854;SDS011;51321;50.428;8.378;2022-11-20T08:07:34;35.72;;;19.50;;
64854;SDS011;51321;50.428;8.378;2022-11-20T08:09:58;40.53;;;21.80;;
64854;SDS011;51321;50.428;8.378;2022-11-20T08:14:59;31.90;;;17.85;;
64854;SDS011;51321;50.428;8.378;2022-11-20T08:17:26;40.15;;;21.45;;
64854;SDS011;51321;50.428;8.378;2022-11-20T08:19:48;35.03;;;20.65;;
64854;SDS011;51321;50.428;8.378;2022-11-20T08:24:33;37.13;;;20.17;;
64854;SDS011;51321;50.428;8.378;2022-11-20T08:29:19;34.38;;;19.15;;
64854;SDS011;51321;50.428;8.378;2022-11-20T08:31:43;40.30;;;21.13;;
64854;SDS011;51321;50.428;8.378;2022-11-20T08:34:07;40.15;;;20.05;;
64854;SDS011;51321;50.428;8.378;2022-11-20T08:36:32;36.05;;;20.55;;
64854;SDS011;51321;50.428;8.378;2022-11-20T08:38:56;32.28;;;19.60;;
64854;SDS011;51321;50.428;8.378;2022-11-20T08:41:19;38.72;;;21.05;;
64854;SDS011;51321;50.428;8.378;2022-11-20T08:43:45;32.28;;;19.15;;
64854;SDS011;51321;50.428;8.378;2022-11-20T08:46:11;33.90;;;19.65;;
64854;SDS011;51321;50.428;8.378;2022-11-20T08:48:34;37.25;;;20.63;;
64854;SDS011;51321;50.428;8.378;2022-11-20T08:50:59;32.97;;;19.98;;
64854;SDS011;51321;50.428;8.378;2022-11-20T08:53:22;34.55;;;19.40;;
64854;SDS011;51321;50.428;8.378;2022-11-20T08:55:45;39.22;;;20.65;;
64854;SDS011;51321;50.428;8.378;2022-11-20T08:58:08;35.97;;;19.85;;
64854;SDS011;51321;50.428;8.378;2022-11-20T09:00:31;36.55;;;19.80;;
64854;SDS011;51321;50.428;8.378;2022-11-20T09:02:54;37.10;;;19.98;;
64854;SDS011;51321;50.428;8.378;2022-11-20T09:05:16;36.38;;;20.38;;
64854;SDS011;51321;50.428;8.378;2022-11-20T09:07:40;34.17;;;20.25;;
64854;SDS011;51321;50.428;8.378;2022-11-20T09:10:03;38.55;;;20.83;;
64854;SDS011;51321;50.428;8.378;2022-11-20T09:12:29;35.72;;;20.05;;
64854;SDS011;51321;50.428;8.378;2022-11-20T09:14:52;34.50;;;20.65;;
64854;SDS011;51321;50.428;8.378;2022-11-20T09:17:17;37.55;;;20.58;;
64854;SDS011;51321;50.428;8.378;2022-11-20T09:19:40;37.88;;;21.58;;
64854;SDS011;51321;50.428;8.378;2022-11-20T09:22:02;41.92;;;22.23;;
64854;SDS011;51321;50.428;8.378;2022-11-20T09:26:50;37.95;;;21.45;;
64854;SDS011;51321;50.428;8.378;2022-11-20T09:29:12;35.63;;;21.20;;
64854;SDS011;51321;50.428;8.378;2022-11-20T09:31:36;38.88;;;21.77;;
64854;SDS011;51321;50.428;8.378;2022-11-20T09:33:59;40.17;;;22.15;;
64854;SDS011;51321;50.428;8.378;2022-11-20T09:36:24;36.97;;;21.17;;
64854;SDS011;51321;50.428;8.378;2022-11-20T09:38:47;39.42;;;20.88;;
64854;SDS011;51321;50.428;8.378;2022-11-20T09:43:45;42.22;;;22.40;;
64854;SDS011;51321;50.428;8.378;2022-11-20T09:46:20;36.58;;;20.02;;
64854;SDS011;51321;50.428;8.378;2022-11-20T09:54:13;33.60;;;18.95;;
64854;SDS011;51321;50.428;8.378;2022-11-20T09:56:41;36.08;;;20.70;;
64854;SDS011;51321;50.428;8.378;2022-11-20T09:59:13;32.83;;;18.85;;
64854;SDS011;51321;50.428;8.378;2022-11-20T10:01:50;31.65;;;18.23;;
64854;SDS011;51321;50.428;8.378;2022-11-20T10:04:15;33.47;;;20.58;;
64854;SDS011;51321;50.428;8.378;2022-11-20T10:06:41;34.95;;;18.77;;
64854;SDS011;51321;50.428;8.378;2022-11-20T10:09:14;37.00;;;20.23;;
64854;SDS011;51321;50.428;8.378;2022-11-20T10:14:17;35.95;;;19.00;;
64854;SDS011;51321;50.428;8.378;2022-11-20T10:16:50;34.83;;;19.00;;
64854;SDS011;51321;50.428;8.378;2022-11-20T10:19:24;36.78;;;20.73;;
64854;SDS011;51321;50.428;8.378;2022-11-20T10:21:59;35.13;;;19.73;;
64854;SDS011;51321;50.428;8.378;2022-11-20T10:24:43;34.45;;;19.38;;
64854;SDS011;51321;50.428;8.378;2022-11-20T10:27:19;36.60;;;19.35;;
64854;SDS011;51321;50.428;8.378;2022-11-20T10:30:03;32.22;;;19.73;;
64854;SDS011;51321;50.428;8.378;2022-11-20T10:32:31;32.38;;;18.73;;
64854;SDS011;51321;50.428;8.378;2022-11-20T10:34:58;37.50;;;20.27;;
64854;SDS011;51321;50.428;8.378;2022-11-20T10:37:27;33.17;;;19.00;;
64854;SDS011;51321;50.428;8.378;2022-11-20T10:39:55;32.08;;;18.40;;
64854;SDS011;51321;50.428;8.378;2022-11-20T10:42:26;28.75;;;17.42;;
64854;SDS011;51321;50.428;8.378;2022-11-20T10:44:58;24.45;;;14.85;;
64854;SDS011;51321;50.428;8.378;2022-11-20T10:47:32;29.95;;;15.70;;
64854;SDS011;51321;50.428;8.378;2022-11-20T10:49:57;22.48;;;14.13;;
64854;SDS011;51321;50.428;8.378;2022-11-20T10:52:27;21.90;;;13.65;;
64854;SDS011;51321;50.428;8.378;2022-11-20T10:54:59;26.60;;;17.90;;
64854;SDS011;51321;50.428;8.378;2022-11-20T10:57:35;22.92;;;13.77;;
64854;SDS011;51321;50.428;8.378;2022-11-20T11:00:11;24.47;;;14.93;;
64854;SDS011;51321;50.428;8.378;2022-11-20T11:02:39;23.33;;;14.32;;
64854;SDS011;51321;50.428;8.378;2022-11-20T11:05:15;21.63;;;13.57;;
64854;SDS011;51321;50.428;8.378;2022-11-20T11:07:50;24.95;;;14.32;;
64854;SDS011;51321;50.428;8.378;2022-11-20T11:10:15;23.42;;;14.52;;
64854;SDS011;51321;50.428;8.378;2022-11-20T11:12:42;21.50;;;13.82;;
64854;SDS011;51321;50.428;8.378;2022-11-20T11:15:11;25.85;;;14.80;;
64854;SDS011;51321;50.428;8.378;2022-11-20T11:17:35;20.23;;;12.40;;
64854;SDS011;51321;50.428;8.378;2022-11-20T11:20:14;19.45;;;13.18;;
64854;SDS011;51321;50.428;8.378;2022-11-20T11:22:42;22.77;;;13.27;;
64854;SDS011;51321;50.428;8.378;2022-11-20T11:25:07;24.90;;;13.57;;
64854;SDS011;51321;50.428;8.378;2022-11-20T11:27:46;21.65;;;13.52;;
64854;SDS011;51321;50.428;8.378;2022-11-20T11:30:14;24.10;;;14.85;;
64854;SDS011;51321;50.428;8.378;2022-11-20T11:32:38;25.17;;;14.32;;
64854;SDS011;51321;50.428;8.378;2022-11-20T11:35:00;22.50;;;13.98;;
64854;SDS011;51321;50.428;8.378;2022-11-20T11:37:24;20.80;;;13.38;;
64854;SDS011;51321;50.428;8.378;2022-11-20T11:39:54;21.83;;;13.65;;
64854;SDS011;51321;50.428;8.378;2022-11-20T11:42:17;22.25;;;13.65;;
64854;SDS011;51321;50.428;8.378;2022-11-20T11:44:43;23.15;;;13.88;;
64854;SDS011;51321;50.428;8.378;2022-11-20T11:47:25;22.00;;;13.38;;
64854;SDS011;51321;50.428;8.378;2022-11-20T11:49:48;20.48;;;13.20;;
64854;SDS011;51321;50.428;8.378;2022-11-20T11:52:22;20.17;;;13.07;;
64854;SDS011;51321;50.428;8.378;2022-11-20T11:54:47;21.88;;;13.52;;
64854;SDS011;51321;50.428;8.378;2022-11-20T11:57:15;18.85;;;13.73;;
64854;SDS011;51321;50.428;8.378;2022-11-20T11:59:46;21.27;;;13.43;;
64854;SDS011;51321;50.428;8.378;2022-11-20T12:02:24;20.65;;;13.00;;
64854;SDS011;51321;50.428;8.378;2022-11-20T12:04:54;23.38;;;15.77;;
64854;SDS011;51321;50.428;8.378;2022-11-20T12:07:25;22.88;;;13.75;;
64854;SDS011;51321;50.428;8.378;2022-11-20T12:09:56;22.90;;;14.50;;
64854;SDS011;51321;50.428;8.378;2022-11-20T12:12:22;21.85;;;14.45;;
64854;SDS011;51321;50.428;8.378;2022-11-20T12:14:52;25.15;;;18.80;;
64854;SDS011;51321;50.428;8.378;2022-11-20T12:17:17;28.40;;;17.60;;
64854;SDS011;51321;50.428;8.378;2022-11-20T12:19:39;29.25;;;20.85;;
64854;SDS011;51321;50.428;8.378;2022-11-20T12:22:05;21.40;;;13.35;;
64854;SDS011;51321;50.428;8.378;2022-11-20T12:24:42;23.20;;;14.95;;
64854;SDS011;51321;50.428;8.378;2022-11-20T12:27:22;23.58;;;15.23;;
64854;SDS011;51321;50.428;8.378;2022-11-20T12:30:13;24.02;;;14.20;;
64854;SDS011;51321;50.428;8.378;2022-11-20T12:32:41;26.77;;;16.65;;
64854;SDS011;51321;50.428;8.378;2022-11-20T12:35:28;22.85;;;15.23;;
64854;SDS011;51321;50.428;8.378;2022-11-20T12:38:06;21.00;;;14.63;;
64854;SDS011;51321;50.428;8.378;2022-11-20T12:40:45;24.45;;;15.48;;
64854;SDS011;51321;50.428;8.378;2022-11-20T12:43:16;21.67;;;14.35;;
64854;SDS011;51321;50.428;8.378;2022-11-20T12:46:07;25.02;;;14.90;;
64854;SDS011;51321;50.428;8.378;2022-11-20T12:48:47;22.88;;;14.32;;
64854;SDS011;51321;50.428;8.378;2022-11-20T12:51:30;21.52;;;14.68;;
64854;SDS011;51321;50.428;8.378;2022-11-20T12:54:36;18.45;;;12.35;;
64854;SDS011;51321;50.428;8.378;2022-11-20T12:59:49;19.48;;;12.43;;
64854;SDS011;51321;50.428;8.378;2022-11-20T13:02:41;24.70;;;15.00;;
64854;SDS011;51321;50.428;8.378;2022-11-20T13:05:19;24.40;;;14.93;;
64854;SDS011;51321;50.428;8.378;2022-11-20T13:07:48;25.05;;;15.18;;
64854;SDS011;51321;50.428;8.378;2022-11-20T13:10:19;33.55;;;19.80;;
64854;SDS011;51321;50.428;8.378;2022-11-20T13:12:49;21.23;;;13.93;;
64854;SDS011;51321;50.428;8.378;2022-11-20T13:15:19;20.77;;;12.88;;
64854;SDS011;51321;50.428;8.378;2022-11-20T13:18:01;24.40;;;14.27;;
64854;SDS011;51321;50.428;8.378;2022-11-20T13:20:28;20.75;;;13.77;;
64854;SDS011;51321;50.428;8.378;2022-11-20T13:22:53;21.90;;;13.68;;
64854;SDS011;51321;50.428;8.378;2022-11-20T13:25:23;24.17;;;15.25;;
64854;SDS011;51321;50.428;8.378;2022-11-20T13:27:47;22.13;;;14.18;;
64854;SDS011;51321;50.428;8.378;2022-11-20T13:30:18;23.48;;;14.07;;
64854;SDS011;51321;50.428;8.378;2022-11-20T13:32:50;25.08;;;14.40;;
64854;SDS011;51321;50.428;8.378;2022-11-20T13:35:26;23.90;;;14.98;;
64854;SDS011;51321;50.428;8.378;2022-11-20T13:40:50;21.75;;;14.02;;
64854;SDS011;51321;50.428;8.378;2022-11-20T13:43:27;22.73;;;14.50;;
64854;SDS011;51321;50.428;8.378;2022-11-20T13:46:00;24.30;;;14.83;;
64854;SDS011;51321;50.428;8.378;2022-11-20T13:48:30;21.27;;;13.93;;
64854;SDS011;51321;50.428;8.378;2022-11-20T13:51:04;21.08;;;13.25;;
64854;SDS011;51321;50.428;8.378;2022-11-20T13:53:41;22.05;;;14.75;;
64854;SDS011;51321;50.428;8.378;2022-11-20T13:56:16;20.30;;;14.90;;
64854;SDS011;51321;50.428;8.378;2022-11-20T13:58:47;23.63;;;16.20;;
64854;SDS011;51321;50.428;8.378;2022-11-20T14:01:17;23.13;;;13.70;;
64854;SDS011;51321;50.428;8.378;2022-11-20T14:03:45;18.23;;;12.25;;
64854;SDS011;51321;50.428;8.378;2022-11-20T14:06:12;22.67;;;14.38;;
64854;SDS011;51321;50.428;8.378;2022-11-20T14:08:43;22.50;;;13.82;;
64854;SDS011;51321;50.428;8.378;2022-11-20T14:11:13;20.45;;;13.75;;
64854;SDS011;51321;50.428;8.378;2022-11-20T14:13:38;21.88;;;14.73;;
64854;SDS011;51321;50.428;8.378;2022-11-20T14:16:00;22.33;;;15.75;;
64854;SDS011;51321;50.428;8.378;2022-11-20T14:18:25;19.05;;;13.07;;
64854;SDS011;51321;50.428;8.378;2022-11-20T14:20:53;19.35;;;12.70;;
64854;SDS011;51321;50.428;8.378;2022-11-20T14:23:24;23.48;;;14.43;;
64854;SDS011;51321;50.428;8.378;2022-11-20T14:25:47;22.13;;;14.98;;
64854;SDS011;51321;50.428;8.378;2022-11-20T14:28:10;20.65;;;14.27;;
64854;SDS011;51321;50.428;8.378;2022-11-20T14:30:42;19.77;;;13.68;;
64854;SDS011;51321;50.428;8.378;2022-11-20T14:33:09;19.80;;;12.68;;
64854;SDS011;51321;50.428;8.378;2022-11-20T14:35:35;20.30;;;13.00;;
64854;SDS011;51321;50.428;8.378;2022-11-20T14:38:08;18.77;;;12.68;;
64854;SDS011;51321;50.428;8.378;2022-11-20T14:40:36;20.80;;;13.63;;
64854;SDS011;51321;50.428;8.378;2022-11-20T14:43:14;23.20;;;15.27;;
64854;SDS011;51321;50.428;8.378;2022-11-20T14:45:39;19.52;;;14.05;;
64854;SDS011;51321;50.428;8.378;2022-11-20T14:48:03;19.48;;;13.60;;
64854;SDS011;51321;50.428;8.378;2022-11-20T14:50:27;23.00;;;14.15;;
64854;SDS011;51321;50.428;8.378;2022-11-20T14:52:51;20.23;;;12.95;;
64854;SDS011;51321;50.428;8.378;2022-11-20T14:55:24;18.63;;;12.32;;
64854;SDS011;51321;50.428;8.378;2022-11-20T14:57:53;19.85;;;12.75;;
64854;SDS011;51321;50.428;8.378;2022-11-20T15:00:18;20.73;;;12.75;;
64854;SDS011;51321;50.428;8.378;2022-11-20T15:02:43;20.05;;;13.15;;
64854;SDS011;51321;50.428;8.378;2022-11-20T15:05:07;19.63;;;12.98;;
64854;SDS011;51321;50.428;8.378;2022-11-20T15:07:31;22.27;;;13.95;;
64854;SDS011;51321;50.428;8.378;2022-11-20T15:10:02;20.17;;;13.30;;
64854;SDS011;51321;50.428;8.378;2022-11-20T15:12:25;21.65;;;12.85;;